FR-0229 weather

Hôtel Ariana Heliport
Aix-Les-Bains, Auvergne-Rhône-Alpes, France

Public forecast

Using degrees Celsius for public forecast. Weather courtesy of forecast.io.

Closest aviation weather report (METAR) to Hôtel Ariana Heliport

Closest report is Chambéry-Savoie Airport, 2.5 nm (4.6 km) SSW. Retrieved 2020/07/15 01:30 UTC (13 minutes ago):

LFLB 150130Z AUTO 14003KT CAVOK 13/09 Q1015 NOSIG

Closest aviation forecast (TAF) to Hôtel Ariana Heliport

Closest forecast is Chambéry-Savoie Airport, 2.5 nm (4.6 km) SSW. Retrieved 2020-07-15 00:21 UTC (1 hour ago):

TAF LFLB 142300Z 1500/1524 18006KT CAVOK BECMG 1509/1512 VRB05KT BKN080 PROB40 TEMPO 1512/1520 VRB15KT -SHRA SCT050 BKN070TCU BECMG 1520/1522 BKN060